Time;durP1;ratioP1;P1;durP2;ratioP2;P2;SDS_P1;SDS_P2;PMS_P1;PMS_P2;Temp;Humidity;BMP_temperature;BMP_pressure;BME280_temperature;BME280_humidity;BME280_pressure;Samples;Min_cycle;Max_cycle;Signal;HPM_P1;HPM_P2
2021/09/21 00:01:51;;;;;;;8.80;6.20;;;14.00;1.00;;;;;;5107543;28;20655;-62
2021/09/21 00:04:17;;;;;;;7.63;6.83;;;14.00;1.00;;;;;;5110749;28;20239;-61
2021/09/21 00:06:43;;;;;;;7.10;6.50;;;14.00;1.00;;;;;;5111545;28;20182;-62
2021/09/21 00:09:09;;;;;;;8.43;7.10;;;13.90;1.00;;;;;;5106920;28;20441;-62
2021/09/21 00:11:34;;;;;;;8.43;6.50;;;13.90;1.00;;;;;;5110365;28;20214;-61
2021/09/21 00:14:01;;;;;;;8.97;6.73;;;14.00;1.00;;;;;;5108325;28;20283;-62
2021/09/21 00:16:27;;;;;;;7.50;6.33;;;14.00;1.00;;;;;;5110655;28;20188;-61
2021/09/21 00:18:53;;;;;;;7.97;7.10;;;14.00;1.00;;;;;;5093948;28;20452;-62
2021/09/21 00:21:18;;;;;;;7.80;7.00;;;14.00;1.00;;;;;;5107467;28;20217;-62
2021/09/21 00:23:44;;;;;;;8.60;6.50;;;14.00;1.00;;;;;;5111112;28;20191;-61
2021/09/21 00:26:10;;;;;;;8.10;6.50;;;14.00;1.00;;;;;;5109852;28;20261;-59
2021/09/21 00:28:36;;;;;;;8.73;6.60;;;13.90;1.00;;;;;;5110885;28;20536;-60
2021/09/21 00:31:09;;;;;;;8.60;6.47;;;13.90;1.00;;;;;;5103861;28;20491;-61
2021/09/21 00:33:47;;;;;;;7.90;7.07;;;13.80;1.00;;;;;;5107633;28;20581;-60
2021/09/21 00:36:13;;;;;;;7.47;6.77;;;13.80;1.00;;;;;;5109443;28;20443;-60
2021/09/21 00:38:39;;;;;;;7.57;6.87;;;13.90;1.00;;;;;;5110590;28;20939;-60
2021/09/21 00:41:04;;;;;;;7.47;6.77;;;14.00;1.00;;;;;;5107871;28;20555;-61
2021/09/21 00:43:30;;;;;;;10.20;7.03;;;13.90;1.00;;;;;;5108849;28;20270;-59
2021/09/21 00:45:55;;;;;;;11.30;6.93;;;13.90;1.00;;;;;;5111508;28;20308;-60
2021/09/21 00:48:21;;;;;;;8.40;7.50;;;13.80;1.00;;;;;;5109097;28;20704;-60
2021/09/21 00:50:48;;;;;;;7.67;6.90;;;13.80;1.00;;;;;;5109787;28;20198;-60
2021/09/21 00:53:13;;;;;;;8.03;7.23;;;13.80;1.00;;;;;;5104646;28;20196;-61
2021/09/21 00:55:39;;;;;;;7.87;6.83;;;13.80;1.00;;;;;;5109799;28;20456;-61
2021/09/21 00:58:05;;;;;;;9.27;8.07;;;13.80;1.00;;;;;;5111298;28;20192;-61
2021/09/21 01:00:31;;;;;;;7.43;6.70;;;13.80;1.00;;;;;;5083857;28;20570;-61
2021/09/21 01:02:56;;;;;;;7.43;6.73;;;13.80;1.00;;;;;;5107867;28;20179;-60
2021/09/21 01:05:22;;;;;;;10.47;7.87;;;13.80;1.00;;;;;;5111227;28;20185;-61
2021/09/21 01:07:48;;;;;;;9.13;7.37;;;13.80;1.00;;;;;;5109755;28;20194;-61
2021/09/21 01:10:20;;;;;;;8.40;7.20;;;13.80;1.00;;;;;;5110892;28;21379;-60
2021/09/21 01:12:46;;;;;;;8.37;7.40;;;13.70;1.00;;;;;;5108212;28;20445;-60
2021/09/21 01:15:13;;;;;;;8.93;6.90;;;13.70;1.00;;;;;;5106536;28;20444;-60
2021/09/21 01:17:40;;;;;;;11.40;7.73;;;13.70;1.00;;;;;;5109683;28;20505;-61
2021/09/21 01:20:07;;;;;;;18.10;9.67;;;13.70;1.00;;;;;;5108731;28;20474;-61
2021/09/21 01:22:33;;;;;;;7.90;6.53;;;13.70;1.00;;;;;;5108612;28;20798;-61
2021/09/21 01:24:59;;;;;;;7.90;6.73;;;13.70;1.00;;;;;;5103708;28;20437;-61
2021/09/21 01:27:25;;;;;;;8.70;7.80;;;13.60;1.00;;;;;;5110302;28;20436;-61
2021/09/21 01:29:50;;;;;;;8.00;7.03;;;13.60;1.00;;;;;;5109780;28;20176;-62
2021/09/21 01:32:19;;;;;;;8.40;7.40;;;13.70;1.00;;;;;;5107273;28;20195;-62
2021/09/21 01:34:46;;;;;;;10.50;8.17;;;13.70;1.00;;;;;;5109962;28;20227;-61
2021/09/21 01:37:13;;;;;;;9.37;8.43;;;13.70;1.00;;;;;;5106343;28;20499;-60
2021/09/21 01:39:39;;;;;;;10.40;7.20;;;13.70;1.00;;;;;;5102921;28;20819;-61
2021/09/21 01:42:04;;;;;;;9.60;8.60;;;13.70;1.00;;;;;;5108987;28;20442;-60
2021/09/21 01:44:30;;;;;;;7.37;6.67;;;13.70;1.00;;;;;;5106792;28;20495;-61
2021/09/21 01:46:55;;;;;;;8.50;7.33;;;13.70;1.00;;;;;;5092135;28;20183;-62
2021/09/21 01:49:21;;;;;;;9.50;7.70;;;13.70;1.00;;;;;;5108709;28;20220;-61
2021/09/21 01:55:03;;;;;;;8.13;7.33;;;13.70;1.00;;;;;;5075289;28;20186;-61
2021/09/21 02:00:13;;;;;;;8.40;7.50;;;13.70;1.00;;;;;;5109854;28;21040;-61
2021/09/21 02:02:39;;;;;;;9.67;8.13;;;13.70;1.00;;;;;;5105277;28;20447;-60
2021/09/21 02:05:05;;;;;;;10.53;7.60;;;13.60;1.00;;;;;;5110194;28;20434;-61
2021/09/21 02:07:30;;;;;;;7.30;6.60;;;13.60;1.00;;;;;;5105600;28;20191;-61
2021/09/21 02:09:56;;;;;;;9.13;7.60;;;13.60;1.00;;;;;;5107441;28;20447;-61
2021/09/21 02:12:21;;;;;;;7.80;7.00;;;13.60;1.00;;;;;;5109551;28;20196;-61
2021/09/21 02:14:47;;;;;;;8.80;7.33;;;13.60;1.00;;;;;;5107466;28;20187;-61
2021/09/21 02:17:12;;;;;;;7.63;6.80;;;13.60;1.00;;;;;;5108201;28;20267;-61
2021/09/21 02:19:40;;;;;;;9.30;6.97;;;13.50;1.00;;;;;;5109515;28;20195;-61
2021/09/21 02:22:06;;;;;;;12.23;7.33;;;13.60;1.00;;;;;;5103174;28;20640;-62
2021/09/21 02:24:32;;;;;;;7.83;7.03;;;13.60;1.00;;;;;;5109339;28;20407;-62
2021/09/21 02:26:57;;;;;;;7.77;7.03;;;13.60;1.00;;;;;;5110455;28;20404;-62
2021/09/21 02:29:23;;;;;;;8.93;7.20;;;13.60;1.00;;;;;;5109209;28;20222;-61
2021/09/21 02:31:48;;;;;;;10.10;7.77;;;13.70;1.00;;;;;;5104942;28;20174;-61
2021/09/21 02:34:14;;;;;;;10.90;8.20;;;13.60;1.00;;;;;;5104498;28;20179;-61
2021/09/21 02:36:41;;;;;;;8.10;7.20;;;13.60;1.00;;;;;;5100423;28;20223;-62
2021/09/21 02:39:08;;;;;;;8.30;7.27;;;13.60;1.00;;;;;;5109615;28;20184;-61
2021/09/21 02:41:34;;;;;;;9.23;7.10;;;13.60;1.00;;;;;;5107052;28;20956;-61
2021/09/21 02:43:59;;;;;;;8.90;7.00;;;13.50;1.00;;;;;;5103738;28;20445;-61
2021/09/21 02:46:25;;;;;;;8.73;7.17;;;13.50;1.00;;;;;;5108212;28;20223;-61
2021/09/21 02:48:50;;;;;;;9.37;7.17;;;13.60;1.00;;;;;;5107457;28;20317;-62
2021/09/21 02:51:16;;;;;;;8.03;7.23;;;13.50;1.00;;;;;;5103780;28;20183;-62
2021/09/21 02:53:41;;;;;;;8.27;7.07;;;13.50;1.00;;;;;;5108999;28;20258;-62
2021/09/21 02:56:07;;;;;;;8.17;7.40;;;13.50;1.00;;;;;;5105154;28;20221;-61
2021/09/21 02:58:32;;;;;;;8.93;7.90;;;13.40;1.00;;;;;;5108787;28;20175;-61
2021/09/21 03:00:59;;;;;;;8.10;7.30;;;13.40;1.00;;;;;;5107563;28;20672;-61
2021/09/21 03:03:29;;;;;;;8.57;7.70;;;13.50;1.00;;;;;;5109618;28;20239;-62
2021/09/21 03:06:42;;;;;;;8.27;6.53;;;13.50;1.00;;;;;;5110456;28;20438;-62
2021/09/21 03:08:44;;;;;;;8.90;7.60;;;13.50;1.00;;;;;;5100909;28;20585;-61
2021/09/21 03:11:20;;;;;;;7.87;7.07;;;13.50;1.00;;;;;;5113354;28;20445;-61
2021/09/21 03:18:56;;;;;;;9.50;7.40;;;13.50;1.00;;;;;;5112081;28;20182;-61
2021/09/21 03:21:22;;;;;;;10.57;7.30;;;13.50;1.00;;;;;;5112027;28;20548;-60
2021/09/21 03:23:48;;;;;;;8.70;7.57;;;13.50;1.00;;;;;;5105050;28;20511;-61
2021/09/21 03:26:13;;;;;;;8.20;7.43;;;13.60;1.00;;;;;;5110950;28;20451;-60
2021/09/21 03:28:39;;;;;;;9.60;8.10;;;13.50;1.00;;;;;;5111318;28;20636;-60
2021/09/21 03:31:05;;;;;;;8.83;6.97;;;13.50;1.00;;;;;;5107971;28;20620;-61
2021/09/21 03:33:30;;;;;;;10.07;7.57;;;13.50;1.00;;;;;;5109587;28;20219;-61
2021/09/21 03:35:56;;;;;;;7.90;7.10;;;13.50;1.00;;;;;;5105535;28;20219;-60
2021/09/21 03:38:21;;;;;;;8.97;8.07;;;13.50;1.00;;;;;;5112055;28;20240;-61
2021/09/21 03:40:47;;;;;;;9.80;8.20;;;13.50;1.00;;;;;;5111729;28;20677;-61
2021/09/21 03:43:13;;;;;;;9.50;7.23;;;13.60;1.00;;;;;;5112033;28;20270;-61
2021/09/21 03:45:38;;;;;;;8.50;7.60;;;13.50;1.00;;;;;;5106880;28;20180;-60
2021/09/21 03:48:07;;;;;;;8.50;6.70;;;13.60;1.00;;;;;;5105913;28;20198;-61
2021/09/21 03:50:33;;;;;;;8.80;7.47;;;13.50;1.00;;;;;;5111888;28;20680;-62
2021/09/21 03:52:58;;;;;;;9.13;7.23;;;13.60;1.00;;;;;;5109300;28;20432;-62
2021/09/21 03:55:24;;;;;;;7.47;6.63;;;13.60;1.00;;;;;;5111672;28;20189;-61
2021/09/21 03:57:49;;;;;;;9.73;7.93;;;13.50;1.00;;;;;;5106015;28;20196;-61
2021/09/21 04:00:15;;;;;;;9.10;7.07;;;13.50;1.00;;;;;;5109827;28;20665;-61
2021/09/21 04:02:41;;;;;;;9.90;7.17;;;13.50;1.00;;;;;;5108182;28;20194;-62
2021/09/21 04:05:07;;;;;;;8.93;7.63;;;13.60;1.00;;;;;;5111021;28;20178;-61
2021/09/21 04:07:33;;;;;;;7.80;6.93;;;13.60;1.00;;;;;;5113097;28;20208;-60
2021/09/21 04:09:58;;;;;;;9.57;7.13;;;13.50;1.00;;;;;;5107250;28;20471;-60
2021/09/21 04:12:24;;;;;;;7.40;6.67;;;13.40;1.00;;;;;;5099845;28;20953;-60
2021/09/21 04:14:49;;;;;;;8.33;7.43;;;13.40;1.00;;;;;;5112249;28;20761;-59
2021/09/21 04:17:15;;;;;;;7.63;6.83;;;13.50;1.00;;;;;;5104366;28;20194;-60
2021/09/21 04:19:40;;;;;;;9.43;7.60;;;13.40;1.00;;;;;;5113085;28;20231;-60
2021/09/21 04:22:07;;;;;;;8.90;7.37;;;13.50;1.00;;;;;;5112264;28;20629;-60
2021/09/21 04:24:33;;;;;;;7.00;6.40;;;15.20;1.00;;;;;;5110951;28;20269;-60
2021/09/21 04:27:00;;;;;;;7.50;6.80;;;13.60;1.00;;;;;;5110776;28;20589;-59
2021/09/21 04:29:26;;;;;;;8.10;7.30;;;13.40;1.00;;;;;;5110141;28;20524;-60
2021/09/21 04:31:54;;;;;;;7.60;6.90;;;13.50;1.00;;;;;;5110225;28;20516;-61
2021/09/21 04:34:20;;;;;;;9.20;8.10;;;13.50;1.00;;;;;;5090383;28;20230;-59
2021/09/21 04:36:46;;;;;;;7.50;6.77;;;13.40;1.00;;;;;;5106594;28;20459;-59
2021/09/21 04:39:11;;;;;;;8.23;7.20;;;13.40;1.00;;;;;;5106676;28;20230;-59
2021/09/21 04:41:38;;;;;;;8.33;7.27;;;13.50;1.00;;;;;;5111118;28;20203;-61
2021/09/21 04:44:04;;;;;;;8.43;7.20;;;13.50;1.00;;;;;;5110327;28;20262;-59
2021/09/21 04:46:30;;;;;;;9.30;7.10;;;13.50;1.00;;;;;;5110278;28;20539;-60
2021/09/21 04:48:56;;;;;;;9.40;7.50;;;13.60;1.00;;;;;;5111063;28;20520;-59
2021/09/21 04:51:21;;;;;;;7.70;6.80;;;13.60;1.00;;;;;;5107203;28;20490;-60
2021/09/21 04:53:47;;;;;;;9.10;8.17;;;13.60;1.00;;;;;;5111520;28;20222;-60
2021/09/21 04:56:12;;;;;;;11.10;7.70;;;13.50;1.00;;;;;;5094345;28;20187;-59
2021/09/21 04:58:38;;;;;;;9.43;6.77;;;13.60;1.00;;;;;;5104679;28;20183;-62
2021/09/21 05:01:03;;;;;;;9.67;6.93;;;13.50;1.00;;;;;;5109518;28;20572;-61
2021/09/21 05:03:29;;;;;;;11.57;8.43;;;13.60;1.00;;;;;;5110907;28;20194;-61
2021/09/21 05:05:54;;;;;;;8.67;7.77;;;13.50;1.00;;;;;;5110498;28;20189;-60
2021/09/21 05:08:20;;;;;;;8.00;7.20;;;13.50;1.00;;;;;;5109771;28;20276;-60
2021/09/21 05:10:45;;;;;;;7.57;6.87;;;13.50;1.00;;;;;;5111060;28;20604;-59
2021/09/21 05:13:13;;;;;;;8.07;6.87;;;13.50;1.00;;;;;;5110251;28;20229;-62
2021/09/21 05:15:39;;;;;;;8.90;7.07;;;13.50;1.00;;;;;;5109523;28;20632;-62
2021/09/21 05:18:04;;;;;;;9.90;7.87;;;13.50;1.00;;;;;;5110021;28;20512;-60
2021/09/21 05:20:30;;;;;;;9.90;6.70;;;13.60;1.00;;;;;;5099455;28;20679;-60
2021/09/21 05:22:55;;;;;;;8.80;7.70;;;13.60;1.00;;;;;;5099372;28;20235;-61
2021/09/21 05:25:22;;;;;;;9.20;8.20;;;13.50;1.00;;;;;;5100419;28;20187;-62
2021/09/21 05:27:48;;;;;;;8.70;7.90;;;13.60;1.00;;;;;;5099799;28;20172;-61
2021/09/21 05:30:14;;;;;;;12.07;7.10;;;13.60;1.00;;;;;;5106703;28;20441;-62
2021/09/21 05:32:40;;;;;;;8.60;6.97;;;13.60;1.00;;;;;;5102951;28;20446;-61
2021/09/21 05:35:07;;;;;;;9.00;7.87;;;13.60;1.00;;;;;;5108112;28;20445;-61
2021/09/21 05:37:32;;;;;;;13.20;8.00;;;13.60;1.00;;;;;;5108782;28;20437;-61
2021/09/21 05:39:58;;;;;;;9.60;8.10;;;13.60;1.00;;;;;;5089785;28;20477;-61
2021/09/21 05:42:25;;;;;;;14.70;7.70;;;13.60;1.00;;;;;;5104430;28;20187;-60
2021/09/21 05:44:52;;;;;;;10.20;8.93;;;13.70;1.00;;;;;;5109080;28;20252;-60
2021/09/21 05:47:17;;;;;;;12.57;11.23;;;13.80;1.00;;;;;;5109934;28;20498;-60
2021/09/21 05:49:43;;;;;;;9.40;8.13;;;13.80;1.00;;;;;;5109210;28;20468;-59
2021/09/21 05:52:09;;;;;;;12.20;7.17;;;13.80;1.00;;;;;;5102562;28;20189;-59
2021/09/21 05:54:35;;;;;;;9.40;7.03;;;13.80;1.00;;;;;;5109356;28;20183;-60
2021/09/21 05:57:00;;;;;;;9.43;8.50;;;13.90;1.00;;;;;;5104685;28;20994;-59
2021/09/21 05:59:26;;;;;;;8.33;7.43;;;14.00;1.00;;;;;;5104367;28;20456;-60
2021/09/21 06:01:51;;;;;;;9.00;7.73;;;14.00;1.00;;;;;;5108441;28;20179;-58
2021/09/21 06:04:17;;;;;;;9.77;8.30;;;14.10;1.00;;;;;;5109317;28;20179;-58
2021/09/21 06:06:43;;;;;;;12.37;8.20;;;14.30;1.00;;;;;;5103042;28;20188;-62
2021/09/21 06:09:08;;;;;;;10.63;8.60;;;14.30;1.00;;;;;;5110427;28;20338;-59
2021/09/21 06:11:34;;;;;;;9.77;8.77;;;14.30;1.00;;;;;;5110306;28;20194;-60
2021/09/21 06:14:03;;;;;;;9.63;8.43;;;14.40;1.00;;;;;;5106639;28;20217;-59
2021/09/21 06:16:29;;;;;;;12.07;9.20;;;14.50;1.00;;;;;;5103799;28;20637;-59
2021/09/21 06:18:56;;;;;;;9.70;8.67;;;14.50;1.00;;;;;;5098043;28;20447;-61
2021/09/21 06:21:21;;;;;;;12.00;8.60;;;14.40;1.00;;;;;;5109685;28;20468;-60
2021/09/21 06:23:48;;;;;;;11.40;9.43;;;14.40;1.00;;;;;;5110641;28;20810;-59
2021/09/21 06:26:13;;;;;;;11.40;9.20;;;14.50;1.00;;;;;;5111108;28;20177;-58
2021/09/21 06:28:39;;;;;;;11.83;8.57;;;14.60;1.00;;;;;;5110574;28;20793;-60
2021/09/21 06:31:05;;;;;;;12.60;8.23;;;14.60;1.00;;;;;;5109953;28;20186;-59
2021/09/21 06:33:30;;;;;;;10.07;8.47;;;14.60;1.00;;;;;;5110717;28;20700;-58
2021/09/21 06:35:56;;;;;;;9.10;7.80;;;14.70;1.00;;;;;;5108998;28;20232;-58
2021/09/21 06:38:21;;;;;;;9.43;8.03;;;14.60;1.00;;;;;;5110521;28;20187;-58
2021/09/21 06:40:47;;;;;;;9.10;8.03;;;14.60;1.00;;;;;;5113216;28;20212;-59
2021/09/21 06:43:13;;;;;;;9.30;7.00;;;14.70;1.00;;;;;;5111577;28;20191;-60
2021/09/21 06:45:38;;;;;;;11.20;7.50;;;14.70;1.00;;;;;;5114147;28;20191;-59
2021/09/21 06:48:04;;;;;;;9.63;7.10;;;14.70;1.00;;;;;;5113948;28;20251;-59
2021/09/21 06:50:30;;;;;;;8.80;7.90;;;14.80;1.00;;;;;;5114149;28;20265;-58
2021/09/21 06:52:55;;;;;;;9.83;7.40;;;14.80;1.00;;;;;;5110314;28;20475;-58
2021/09/21 06:55:24;;;;;;;9.50;7.73;;;14.90;1.00;;;;;;5110270;28;20188;-58
2021/09/21 06:57:51;;;;;;;10.27;8.13;;;14.90;1.00;;;;;;5111378;28;20181;-61
2021/09/21 07:00:18;;;;;;;7.83;7.03;;;14.90;1.00;;;;;;5110666;28;20432;-58
2021/09/21 07:02:47;;;;;;;8.53;6.93;;;14.80;1.00;;;;;;5110830;28;20890;-59
2021/09/21 07:05:13;;;;;;;10.17;8.23;;;14.90;1.00;;;;;;5106517;28;20997;-59
2021/09/21 07:07:56;;;;;;;8.47;7.23;;;14.90;1.00;;;;;;5109958;28;20538;-60
2021/09/21 07:10:22;;;;;;;9.43;8.20;;;14.90;1.00;;;;;;5112306;28;20323;-58
2021/09/21 07:12:47;;;;;;;11.27;8.30;;;14.90;1.00;;;;;;5110488;28;20527;-59
2021/09/21 07:15:14;;;;;;;10.43;7.87;;;15.20;1.00;;;;;;5107862;28;20179;-60
2021/09/21 07:17:39;;;;;;;16.00;7.43;;;15.40;1.00;;;;;;5110915;28;20188;-60
2021/09/21 07:20:06;;;;;;;9.17;7.67;;;15.60;1.00;;;;;;5112411;28;20430;-60
2021/09/21 07:22:33;;;;;;;10.10;7.87;;;15.80;1.00;;;;;;5110094;28;20200;-59
2021/09/21 07:24:59;;;;;;;17.40;8.43;;;16.10;1.00;;;;;;5111180;28;20458;-61
2021/09/21 07:27:25;;;;;;;9.50;8.00;;;16.20;1.00;;;;;;5111902;28;20446;-59
2021/09/21 07:29:50;;;;;;;9.27;8.30;;;16.10;1.00;;;;;;5094797;28;20438;-59
2021/09/21 07:32:16;;;;;;;9.43;8.20;;;16.20;1.00;;;;;;5109699;28;20200;-60
2021/09/21 07:34:41;;;;;;;9.00;8.17;;;16.20;1.00;;;;;;5109818;28;20208;-58
2021/09/21 07:37:09;;;;;;;9.60;8.03;;;16.20;1.00;;;;;;5108334;28;20192;-59
2021/09/21 07:39:35;;;;;;;10.37;7.00;;;16.30;1.00;;;;;;5111465;28;20237;-59
2021/09/21 07:42:01;;;;;;;8.80;7.50;;;16.60;1.00;;;;;;5110777;28;20448;-60
2021/09/21 07:44:26;;;;;;;10.97;8.33;;;16.80;1.00;;;;;;5087072;28;20436;-60
2021/09/21 07:46:53;;;;;;;10.87;8.50;;;16.80;1.00;;;;;;5109666;28;20638;-60
2021/09/21 07:49:18;;;;;;;7.90;7.13;;;16.90;1.00;;;;;;5108948;28;20742;-59
2021/09/21 07:51:45;;;;;;;8.63;7.77;;;16.90;1.00;;;;;;5106173;28;20455;-59
2021/09/21 07:54:11;;;;;;;9.87;7.30;;;17.00;1.00;;;;;;5107437;28;20458;-59
2021/09/21 07:56:37;;;;;;;7.50;6.80;;;17.10;1.00;;;;;;5105321;28;20796;-59
2021/09/21 07:59:04;;;;;;;9.90;7.57;;;17.10;1.00;;;;;;5108352;28;20193;-60
2021/09/21 08:01:30;;;;;;;11.77;7.77;;;17.10;1.00;;;;;;5109840;28;20666;-59
2021/09/21 08:03:56;;;;;;;9.87;7.83;;;17.20;1.00;;;;;;5106858;28;20446;-59
2021/09/21 08:06:23;;;;;;;11.07;7.43;;;17.20;1.00;;;;;;5110600;28;20178;-60
2021/09/21 08:08:48;;;;;;;9.30;6.80;;;17.00;1.00;;;;;;5110846;28;20440;-59
2021/09/21 08:11:14;;;;;;;11.20;7.60;;;17.20;1.00;;;;;;5073369;28;20657;-60
2021/09/21 08:13:40;;;;;;;8.53;6.80;;;17.20;1.00;;;;;;5109671;28;20186;-60
2021/09/21 08:16:06;;;;;;;8.93;6.87;;;17.40;1.00;;;;;;5092549;28;20194;-58
2021/09/21 08:18:32;;;;;;;7.20;6.47;;;17.30;1.00;;;;;;5111443;28;20451;-61
2021/09/21 08:20:58;;;;;;;8.00;7.20;;;17.30;1.00;;;;;;5105325;28;20470;-60
2021/09/21 08:23:24;;;;;;;9.10;7.20;;;17.30;1.00;;;;;;5111669;28;20193;-60
2021/09/21 08:25:50;;;;;;;9.10;8.20;;;17.20;1.00;;;;;;5110098;28;20643;-59
2021/09/21 08:28:16;;;;;;;7.90;7.00;;;17.20;1.00;;;;;;5111289;28;20497;-58
2021/09/21 08:30:41;;;;;;;8.80;6.67;;;17.10;1.00;;;;;;5110360;28;20466;-60
2021/09/21 08:33:07;;;;;;;9.10;6.50;;;17.10;1.00;;;;;;5098756;28;20638;-60
2021/09/21 08:35:32;;;;;;;8.67;6.50;;;17.00;1.00;;;;;;5110813;28;20216;-59
2021/09/21 08:37:59;;;;;;;7.30;6.60;;;17.20;1.00;;;;;;5108017;28;20186;-59
2021/09/21 08:40:25;;;;;;;8.50;7.60;;;17.30;1.00;;;;;;5110021;28;20201;-59
2021/09/21 08:42:50;;;;;;;10.10;7.10;;;17.60;1.00;;;;;;5111476;28;20447;-62
2021/09/21 08:45:16;;;;;;;10.23;7.00;;;17.80;1.00;;;;;;5104714;28;20257;-58
2021/09/21 08:47:42;;;;;;;8.63;7.23;;;18.10;1.00;;;;;;5109455;28;20184;-61
2021/09/21 08:50:09;;;;;;;9.93;7.17;;;18.10;1.00;;;;;;5105874;28;20217;-58
2021/09/21 08:52:41;;;;;;;8.30;6.90;;;18.10;1.00;;;;;;5106559;28;20443;-59
2021/09/21 08:55:12;;;;;;;7.30;6.50;;;18.10;1.00;;;;;;5111305;28;20946;-61
2021/09/21 08:57:39;;;;;;;7.20;5.70;;;18.10;1.00;;;;;;5106974;28;20474;-59
2021/09/21 09:00:28;;;;;;;8.33;6.70;;;18.10;1.00;;;;;;5109250;28;20505;-59
2021/09/21 09:03:11;;;;;;;10.30;7.40;;;18.10;1.00;;;;;;5108641;28;20468;-61
2021/09/21 09:05:55;;;;;;;7.23;6.60;;;18.20;1.00;;;;;;5105816;28;20569;-60
2021/09/21 09:08:47;;;;;;;6.43;5.83;;;18.40;1.00;;;;;;5091270;28;20455;-60
2021/09/21 09:11:18;;;;;;;6.73;6.07;;;18.40;1.00;;;;;;5104078;28;20507;-59
2021/09/21 09:13:46;;;;;;;7.30;6.37;;;18.10;1.00;;;;;;5108471;28;20443;-60
2021/09/21 09:16:17;;;;;;;12.13;5.77;;;18.20;1.00;;;;;;5106323;28;20434;-60
2021/09/21 09:18:44;;;;;;;7.50;5.60;;;18.30;1.00;;;;;;5109117;28;20440;-59
2021/09/21 09:21:10;;;;;;;8.17;5.70;;;18.20;1.00;;;;;;5105584;28;20471;-59
2021/09/21 09:23:52;;;;;;;7.10;6.40;;;18.40;1.00;;;;;;5107778;28;20445;-59
2021/09/21 09:26:22;;;;;;;5.90;5.30;;;18.20;1.00;;;;;;5110776;28;20439;-61
2021/09/21 09:28:47;;;;;;;8.63;5.97;;;18.10;1.00;;;;;;5111171;28;20451;-59
2021/09/21 09:31:27;;;;;;;7.00;6.20;;;18.40;1.00;;;;;;5110385;28;20950;-59
2021/09/21 09:34:07;;;;;;;7.60;5.70;;;18.50;1.00;;;;;;5110880;28;20503;-58
2021/09/21 09:37:03;;;;;;;8.50;5.67;;;18.60;1.00;;;;;;5092522;28;20479;-58
2021/09/21 09:39:30;;;;;;;7.47;5.00;;;18.30;1.00;;;;;;5110888;28;20430;-60
2021/09/21 09:41:57;;;;;;;5.60;4.80;;;18.20;1.00;;;;;;5110606;28;20470;-58
2021/09/21 09:44:25;;;;;;;7.07;5.40;;;18.10;1.00;;;;;;5110994;28;20789;-59
2021/09/21 09:47:00;;;;;;;6.60;5.30;;;17.90;1.00;;;;;;5105452;28;20438;-61
2021/09/21 09:49:30;;;;;;;7.60;5.20;;;17.80;1.00;;;;;;5110591;28;20473;-59
2021/09/21 09:52:07;;;;;;;5.40;4.90;;;17.70;1.00;;;;;;5110917;28;20842;-59
2021/09/21 09:54:34;;;;;;;11.63;6.23;;;17.80;1.00;;;;;;5110887;28;20439;-60
2021/09/21 09:57:01;;;;;;;5.30;4.80;;;17.80;1.00;;;;;;5110832;28;20744;-59
2021/09/21 09:59:28;;;;;;;7.17;5.17;;;18.00;1.00;;;;;;5110661;28;20436;-60
2021/09/21 10:01:54;;;;;;;6.80;6.20;;;18.20;1.00;;;;;;5110911;28;20463;-59
2021/09/21 10:04:20;;;;;;;6.67;5.97;;;18.40;1.00;;;;;;5110246;28;20436;-60
2021/09/21 10:06:46;;;;;;;7.03;5.73;;;18.40;1.00;;;;;;5110651;28;20446;-59
2021/09/21 10:09:12;;;;;;;5.83;5.30;;;18.20;1.00;;;;;;5110112;28;20189;-60
2021/09/21 10:11:40;;;;;;;7.30;6.37;;;18.30;1.00;;;;;;5110322;28;20181;-60
2021/09/21 10:14:06;;;;;;;7.23;5.70;;;18.40;1.00;;;;;;5110723;28;20838;-60
2021/09/21 10:16:32;;;;;;;6.57;5.70;;;18.50;1.00;;;;;;5114533;27;20522;-59
2021/09/21 10:19:00;;;;;;;7.57;5.70;;;18.40;1.00;;;;;;5114837;28;20529;-60
2021/09/21 10:21:34;;;;;;;6.20;5.60;;;18.20;1.00;;;;;;5114203;28;20294;-61
2021/09/21 10:24:06;;;;;;;9.53;6.20;;;18.40;1.00;;;;;;5115022;28;20414;-60
2021/09/21 10:26:38;;;;;;;7.60;5.80;;;18.50;1.00;;;;;;5114200;28;20415;-61
2021/09/21 10:29:03;;;;;;;7.03;6.33;;;18.60;1.00;;;;;;5114622;28;20434;-59
2021/09/21 10:31:29;;;;;;;8.70;6.50;;;18.90;1.00;;;;;;5114443;28;20510;-61
2021/09/21 10:33:55;;;;;;;6.53;5.93;;;19.10;1.00;;;;;;5114319;28;20185;-59
2021/09/21 10:36:30;;;;;;;6.93;6.23;;;19.00;1.00;;;;;;5114024;28;20184;-60
2021/09/21 10:39:11;;;;;;;7.40;6.47;;;19.00;1.00;;;;;;5114445;28;20541;-59
2021/09/21 10:41:56;;;;;;;6.40;5.80;;;18.80;1.00;;;;;;5114039;28;20467;-59
2021/09/21 10:44:22;;;;;;;6.47;5.63;;;18.70;1.00;;;;;;5112568;28;20574;-58
2021/09/21 10:46:50;;;;;;;5.90;5.40;;;19.00;1.00;;;;;;5110942;28;20984;-59
2021/09/21 10:49:42;;;;;;;7.27;5.40;;;19.20;1.00;;;;;;5113824;28;20469;-60
2021/09/21 10:52:13;;;;;;;7.13;6.10;;;19.00;1.00;;;;;;5110710;28;20531;-61
2021/09/21 10:54:50;;;;;;;6.53;5.97;;;19.30;1.00;;;;;;5113815;28;20438;-61
2021/09/21 10:57:17;;;;;;;7.60;6.67;;;19.80;1.00;;;;;;5113958;28;20436;-59
2021/09/21 10:59:57;;;;;;;6.70;5.97;;;20.40;1.00;;;;;;5113745;28;20447;-59
2021/09/21 11:02:31;;;;;;;6.07;5.50;;;20.60;1.00;;;;;;5113753;28;20895;-60
2021/09/21 11:04:59;;;;;;;6.07;5.57;;;20.60;1.00;;;;;;5095621;28;20406;-63
2021/09/21 11:07:25;;;;;;;5.67;5.13;;;20.50;1.00;;;;;;5112504;28;20413;-59
2021/09/21 11:09:53;;;;;;;5.90;5.40;;;20.20;1.00;;;;;;5110766;28;20508;-60
2021/09/21 11:12:22;;;;;;;6.40;5.10;;;19.80;1.00;;;;;;5113573;28;20182;-59
2021/09/21 11:14:48;;;;;;;6.33;5.80;;;19.90;1.00;;;;;;5113312;28;20411;-60
2021/09/21 11:17:14;;;;;;;8.77;5.83;;;19.80;1.00;;;;;;5113642;28;20437;-61
2021/09/21 11:19:40;;;;;;;8.17;5.67;;;19.70;1.00;;;;;;5112856;28;20905;-61
2021/09/21 11:22:10;;;;;;;8.57;4.60;;;19.70;1.00;;;;;;5113496;28;20257;-59
2021/09/21 11:24:37;;;;;;;7.50;6.47;;;19.60;1.00;;;;;;5113490;28;20408;-61
2021/09/21 11:27:06;;;;;;;7.70;5.77;;;19.60;1.00;;;;;;5111145;28;20492;-60
2021/09/21 11:29:34;;;;;;;6.10;5.50;;;19.50;1.00;;;;;;5112658;28;20839;-61
2021/09/21 11:32:20;;;;;;;4.90;4.17;;;19.40;1.00;;;;;;5113156;28;20479;-61
2021/09/21 11:35:07;;;;;;;7.57;5.60;;;18.60;1.00;;;;;;5106980;28;21013;-58
2021/09/21 11:37:33;;;;;;;7.37;5.90;;;18.40;1.00;;;;;;5112680;28;20497;-59
2021/09/21 11:39:58;;;;;;;6.43;5.70;;;18.20;1.00;;;;;;5112184;28;20467;-58
2021/09/21 11:42:31;;;;;;;5.60;5.03;;;17.80;1.00;;;;;;5112886;28;20832;-60
2021/09/21 11:45:02;;;;;;;6.40;5.80;;;17.50;1.00;;;;;;5111508;28;20209;-59
2021/09/21 11:47:39;;;;;;;6.23;4.60;;;17.30;1.00;;;;;;5109799;28;20446;-60
2021/09/21 11:50:13;;;;;;;7.33;5.07;;;17.20;1.00;;;;;;5110047;28;20528;-60
2021/09/21 11:52:40;;;;;;;6.23;5.63;;;17.20;1.00;;;;;;5111270;28;20447;-62
2021/09/21 11:55:12;;;;;;;6.00;5.40;;;17.30;1.00;;;;;;5101881;28;20443;-59
2021/09/21 11:57:37;;;;;;;7.50;5.70;;;17.40;1.00;;;;;;5108827;28;20441;-60
2021/09/21 12:00:17;;;;;;;5.63;4.90;;;17.50;1.00;;;;;;5110389;28;20429;-60
2021/09/21 12:02:42;;;;;;;5.20;4.53;;;17.50;1.00;;;;;;5109368;28;20187;-59
2021/09/21 12:05:12;;;;;;;5.83;4.83;;;20.50;1.00;;;;;;5110374;28;20428;-59
2021/09/21 12:07:39;;;;;;;9.60;5.27;;;17.40;1.00;;;;;;5112136;28;20179;-60
2021/09/21 12:10:05;;;;;;;5.63;5.00;;;17.30;1.00;;;;;;5111118;28;20742;-59
2021/09/21 12:12:31;;;;;;;13.70;6.03;;;17.30;1.00;;;;;;5106356;28;20474;-60
2021/09/21 12:15:00;;;;;;;6.10;4.83;;;17.40;1.00;;;;;;5111847;28;20438;-62
2021/09/21 12:17:26;;;;;;;6.43;5.33;;;17.50;1.00;;;;;;5108766;27;20193;-60
2021/09/21 12:20:00;;;;;;;8.27;5.40;;;17.40;1.00;;;;;;5111912;28;20915;-59
2021/09/21 12:22:26;;;;;;;7.00;6.17;;;17.20;1.00;;;;;;5081871;28;20479;-59
2021/09/21 12:24:53;;;;;;;7.23;5.60;;;17.20;1.00;;;;;;5110910;28;20490;-59
2021/09/21 12:27:23;;;;;;;8.03;5.80;;;17.10;1.00;;;;;;5110798;28;20495;-62
2021/09/21 12:29:48;;;;;;;5.30;4.80;;;17.30;1.00;;;;;;5111841;28;20418;-58
2021/09/21 12:32:14;;;;;;;6.00;5.10;;;17.50;1.00;;;;;;5108693;28;20438;-60
2021/09/21 12:34:41;;;;;;;5.70;5.20;;;17.50;1.00;;;;;;5112064;28;20298;-60
2021/09/21 12:37:07;;;;;;;9.00;5.77;;;17.50;1.00;;;;;;5110653;28;20187;-59
2021/09/21 12:39:33;;;;;;;5.10;4.60;;;17.50;1.00;;;;;;5111787;28;20409;-58
2021/09/21 12:42:03;;;;;;;7.30;4.80;;;17.50;1.00;;;;;;5109758;28;20287;-59
2021/09/21 12:44:29;;;;;;;9.30;5.03;;;17.60;1.00;;;;;;5110639;28;20502;-60
2021/09/21 12:46:57;;;;;;;5.87;4.93;;;17.70;1.00;;;;;;5093031;28;20424;-61
2021/09/21 12:49:23;;;;;;;4.83;4.30;;;17.70;1.00;;;;;;5107162;28;20469;-59
2021/09/21 12:51:55;;;;;;;5.30;3.97;;;17.80;1.00;;;;;;5106833;28;20420;-60
2021/09/21 12:54:22;;;;;;;5.87;4.47;;;17.80;1.00;;;;;;5091506;28;20448;-59
2021/09/21 12:56:58;;;;;;;7.13;4.80;;;17.80;1.00;;;;;;5111261;28;20959;-59
2021/09/21 12:59:27;;;;;;;5.17;4.23;;;17.70;1.00;;;;;;5109523;28;20453;-59
2021/09/21 13:01:53;;;;;;;5.10;4.60;;;17.50;1.00;;;;;;5110323;28;20817;-59
2021/09/21 13:04:20;;;;;;;6.33;4.80;;;17.30;1.00;;;;;;5109391;28;20778;-60
2021/09/21 13:06:48;;;;;;;6.33;4.77;;;17.20;1.00;;;;;;5091212;28;20424;-60
2021/09/21 13:09:14;;;;;;;5.00;4.23;;;17.10;1.00;;;;;;5110165;28;20435;-60